Terminal Aerodrome Forecast
Issued by NWS Raleigh/Durham, NC

Home | Current Version | Previous Version | Text Only | Print | Product List | Glossary On
Versions: 1 2 3 4 5 6 7 8 9 10 11 12 13 14 15 16 17 18 19 20 21 22 23 24 25 26 27 28 29 30 31 32 33 34 35 36
000
FTUS42 KRAH 281731
TAFGSO
TAF
KGSO 281731Z 2818/2918 24010G16KT P6SM -RA SCT007 OVC012
     FM282200 26006KT P6SM SCT017 OVC035
     FM290400 01006KT 4SM -RA BR SCT007 OVC012
     FM291300 05008KT 1SM -RA BR SCT002 OVC007=

USA.gov is the U.S. government's official web portal to all federal, state and local government web resources and services.